createdAt,value
2016-12-13T00:00:17.795Z,20.8
2016-12-13T00:00:46.006Z,20.73
2016-12-13T00:01:14.314Z,20.8
2016-12-13T00:01:42.319Z,20.77
2016-12-13T00:02:10.630Z,20.85
2016-12-13T00:02:38.769Z,20.79
2016-12-13T00:03:06.998Z,20.85
2016-12-13T00:03:35.097Z,20.8
2016-12-13T00:04:46.240Z,20.86
2016-12-13T00:05:14.277Z,20.82
2016-12-13T00:05:42.504Z,20.86
2016-12-13T00:06:10.745Z,20.88
2016-12-13T00:06:38.956Z,20.85
2016-12-13T00:07:06.987Z,20.82
2016-12-13T00:07:34.980Z,20.92
2016-12-13T00:08:03.108Z,20.85
2016-12-13T00:08:31.440Z,20.83
2016-12-13T00:08:59.669Z,20.89
2016-12-13T00:09:27.966Z,20.83
2016-12-13T00:10:39.294Z,20.83
2016-12-13T00:11:07.426Z,20.79
2016-12-13T00:11:35.747Z,20.85
2016-12-13T00:12:04.078Z,20.74
2016-12-13T00:12:32.287Z,20.77
2016-12-13T00:13:00.604Z,20.8
2016-12-13T00:13:28.688Z,20.77
2016-12-13T00:13:56.998Z,20.75
2016-12-13T00:14:25.145Z,20.75
2016-12-13T00:14:53.462Z,20.75
2016-12-13T00:15:21.564Z,20.82
2016-12-13T00:16:32.804Z,20.77
2016-12-13T00:17:01.117Z,20.79
2016-12-13T00:17:29.255Z,20.77
2016-12-13T00:17:57.586Z,20.74
2016-12-13T00:18:25.702Z,20.73
2016-12-13T00:18:54.009Z,20.74
2016-12-13T00:19:22.098Z,20.77
2016-12-13T00:19:50.318Z,20.75
2016-12-13T00:20:18.647Z,20.83
2016-12-13T00:20:46.971Z,20.88
2016-12-13T00:21:14.986Z,20.8
2016-12-13T00:22:26.135Z,20.79
2016-12-13T00:22:54.355Z,20.79
2016-12-13T00:23:22.392Z,20.75
2016-12-13T00:23:50.641Z,20.77
2016-12-13T00:24:18.944Z,20.75
2016-12-13T00:24:47.250Z,20.77
2016-12-13T00:25:15.431Z,20.73
2016-12-13T00:25:43.557Z,20.82
2016-12-13T00:26:11.797Z,20.71
2016-12-13T00:26:39.933Z,20.7
2016-12-13T00:27:08.038Z,20.7
2016-12-13T00:28:19.184Z,20.79
2016-12-13T00:28:47.411Z,20.75
2016-12-13T00:29:15.638Z,20.74
2016-12-13T00:29:43.969Z,20.77
2016-12-13T00:30:12.177Z,20.79
2016-12-13T00:30:40.395Z,20.75
2016-12-13T00:31:08.581Z,20.74
2016-12-13T00:31:36.825Z,20.75
2016-12-13T00:32:05.061Z,20.79
2016-12-13T00:32:33.293Z,20.73
2016-12-13T00:33:01.406Z,20.74
2016-12-13T00:34:12.642Z,20.77
2016-12-13T00:34:40.960Z,20.79
2016-12-13T00:35:09.285Z,20.68
2016-12-13T00:35:37.529Z,20.77
2016-12-13T00:36:05.829Z,20.7
2016-12-13T00:36:34.146Z,20.74
2016-12-13T00:37:02.339Z,20.7
2016-12-13T00:37:30.646Z,20.75
2016-12-13T00:37:58.803Z,20.73
2016-12-13T00:38:27.124Z,20.75
2016-12-13T00:38:55.133Z,20.75
2016-12-13T00:40:06.368Z,20.75
2016-12-13T00:40:34.405Z,20.77
2016-12-13T00:41:02.632Z,20.74
2016-12-13T00:41:30.782Z,20.8
2016-12-13T00:41:58.904Z,20.79
2016-12-13T00:42:27.126Z,20.7
2016-12-13T00:42:55.403Z,20.7
2016-12-13T00:43:23.718Z,20.7
2016-12-13T00:43:52.060Z,20.67
2016-12-13T00:44:20.295Z,20.79
2016-12-13T00:44:48.433Z,20.7
2016-12-13T00:45:59.717Z,20.71
2016-12-13T00:46:28.043Z,20.71
2016-12-13T00:46:56.274Z,20.74
2016-12-13T00:47:24.603Z,20.77
2016-12-13T00:47:52.913Z,20.75
2016-12-13T00:48:21.135Z,20.75
2016-12-13T00:48:49.047Z,20.65
2016-12-13T00:49:17.360Z,20.75
2016-12-13T00:49:45.690Z,20.73
2016-12-13T00:50:13.729Z,20.71
2016-12-13T00:50:42.046Z,20.74
2016-12-13T00:51:53.195Z,20.77
2016-12-13T00:52:21.330Z,20.75
2016-12-13T00:52:49.671Z,20.73
2016-12-13T00:53:18.000Z,20.74
2016-12-13T00:53:46.028Z,20.74
2016-12-13T00:54:14.251Z,20.79
2016-12-13T00:54:42.437Z,20.77
2016-12-13T00:55:10.695Z,20.77
2016-12-13T00:55:39.032Z,20.75
2016-12-13T00:56:07.365Z,20.8
2016-12-13T00:56:35.569Z,20.74
2016-12-13T00:57:46.725Z,20.75
2016-12-13T00:58:14.948Z,20.79
2016-12-13T00:58:43.084Z,20.79
2016-12-13T00:59:11.234Z,20.83
2016-12-13T00:59:39.537Z,20.8
2016-12-13T01:00:07.750Z,20.89
2016-12-13T01:00:35.931Z,20.82
2016-12-13T01:01:04.151Z,20.85
2016-12-13T01:01:32.388Z,20.88
2016-12-13T01:02:00.712Z,20.88
2016-12-13T01:02:28.906Z,20.89
2016-12-13T01:03:40.145Z,20.88
2016-12-13T01:04:08.374Z,20.89
2016-12-13T01:04:36.603Z,20.88
2016-12-13T01:05:04.750Z,20.82
2016-12-13T01:05:33.053Z,20.88
2016-12-13T01:06:01.268Z,20.85
2016-12-13T01:06:29.539Z,20.85
2016-12-13T01:06:57.851Z,20.86
2016-12-13T01:07:26.083Z,20.88
2016-12-13T01:07:54.309Z,20.86
2016-12-13T01:08:22.506Z,20.88
2016-12-13T01:09:33.559Z,20.83
2016-12-13T01:10:01.783Z,20.89
2016-12-13T01:10:29.825Z,20.92
2016-12-13T01:10:58.072Z,20.89
2016-12-13T01:11:26.280Z,20.98
2016-12-13T01:11:54.495Z,20.89
2016-12-13T01:12:22.774Z,20.92
2016-12-13T01:12:50.899Z,20.98
2016-12-13T01:13:18.860Z,21
2016-12-13T01:13:46.997Z,21.03
2016-12-13T01:14:14.917Z,21.03
2016-12-13T01:15:26.248Z,21.04
2016-12-13T01:15:54.474Z,20.98
2016-12-13T01:16:22.701Z,21.01
2016-12-13T01:16:50.753Z,20.97
2016-12-13T01:17:19.056Z,21.04
2016-12-13T01:17:47.363Z,21.07
2016-12-13T01:18:15.637Z,21
2016-12-13T01:18:43.852Z,21.03
2016-12-13T01:19:12.187Z,21.01
2016-12-13T01:19:40.513Z,20.95
2016-12-13T01:20:08.615Z,21.04
2016-12-13T01:21:19.662Z,20.98
2016-12-13T01:21:47.704Z,21
2016-12-13T01:22:15.931Z,20.93
2016-12-13T01:22:44.264Z,21.07
2016-12-13T01:23:12.565Z,20.98
2016-12-13T01:23:40.780Z,21.03
2016-12-13T01:24:09.051Z,20.98
2016-12-13T01:24:37.172Z,21.04
2016-12-13T01:25:05.313Z,21.05
2016-12-13T01:25:33.537Z,20.95
2016-12-13T01:26:01.828Z,21.04
2016-12-13T01:27:13.064Z,21
2016-12-13T01:27:41.283Z,21
2016-12-13T01:28:09.513Z,21.01
2016-12-13T01:28:37.751Z,21
2016-12-13T01:29:05.965Z,21.04
2016-12-13T01:29:34.269Z,21.04
2016-12-13T01:30:02.548Z,21
2016-12-13T01:30:30.861Z,21.01
2016-12-13T01:30:59.189Z,21.01
2016-12-13T01:31:27.229Z,21.01
2016-12-13T01:31:55.428Z,21
2016-12-13T01:33:06.662Z,21
2016-12-13T01:33:34.792Z,21
2016-12-13T01:34:03.018Z,20.92
2016-12-13T01:34:31.167Z,21.04
2016-12-13T01:34:59.470Z,21
2016-12-13T01:35:27.688Z,21.03
2016-12-13T01:35:55.682Z,21.03
2016-12-13T01:36:23.898Z,21
2016-12-13T01:36:52.225Z,21
2016-12-13T01:37:20.456Z,21.04
2016-12-13T01:37:48.466Z,21.01
2016-12-13T01:38:59.709Z,20.98
2016-12-13T01:39:28.020Z,21.04
2016-12-13T01:39:56.339Z,21.01
2016-12-13T01:40:24.671Z,21.04
2016-12-13T01:40:52.881Z,21.01
2016-12-13T01:41:21.007Z,21.01
2016-12-13T01:41:49.091Z,20.98
2016-12-13T01:42:17.404Z,21.04
2016-12-13T01:42:45.543Z,20.98
2016-12-13T01:43:13.588Z,20.9
2016-12-13T01:43:41.787Z,21.07
2016-12-13T01:44:53.015Z,20.98
2016-12-13T01:45:21.240Z,21.01
2016-12-13T01:45:49.464Z,21.03
2016-12-13T01:46:17.795Z,21.03
2016-12-13T01:46:45.941Z,21.05
2016-12-13T01:47:14.159Z,21.03
2016-12-13T01:47:42.338Z,20.98
2016-12-13T01:48:10.559Z,21.01
2016-12-13T01:48:38.798Z,20.89
2016-12-13T01:49:07.027Z,21.01
2016-12-13T01:49:35.225Z,21.04
2016-12-13T01:50:46.463Z,20.95
2016-12-13T01:51:14.687Z,21.04
2016-12-13T01:51:43.006Z,20.97
2016-12-13T01:52:11.245Z,21.03
2016-12-13T01:52:39.363Z,21.03
2016-12-13T01:53:07.579Z,21.07
2016-12-13T01:53:35.575Z,21.01
2016-12-13T01:54:03.799Z,21
2016-12-13T01:54:32.035Z,20.97
2016-12-13T01:55:00.267Z,21
2016-12-13T01:55:28.464Z,21.04
2016-12-13T01:56:39.700Z,20.95
2016-12-13T01:57:07.747Z,20.97
2016-12-13T01:57:36.069Z,20.92
2016-12-13T01:58:04.303Z,20.92
2016-12-13T01:58:32.428Z,20.97
2016-12-13T01:59:00.634Z,21.01
2016-12-13T01:59:28.909Z,20.97
2016-12-13T01:59:57.125Z,20.97
2016-12-13T02:00:25.360Z,21.01
2016-12-13T02:00:53.683Z,20.98
2016-12-13T02:01:21.877Z,21.01
2016-12-13T02:02:33.111Z,21
2016-12-13T02:03:01.332Z,20.95
2016-12-13T02:03:29.372Z,21
2016-12-13T02:03:57.708Z,21.04
2016-12-13T02:04:25.916Z,20.93
2016-12-13T02:04:54.039Z,20.95
2016-12-13T02:05:21.939Z,20.98
2016-12-13T02:05:50.154Z,20.92
2016-12-13T02:06:18.383Z,20.92
2016-12-13T02:06:46.512Z,20.95
2016-12-13T02:07:14.620Z,20.97
2016-12-13T02:08:25.851Z,21.03
2016-12-13T02:08:54.075Z,21.03
2016-12-13T02:09:22.396Z,20.93
2016-12-13T02:09:50.633Z,20.98
2016-12-13T02:10:18.838Z,20.95
2016-12-13T02:10:47.050Z,20.95
2016-12-13T02:11:15.229Z,20.97
2016-12-13T02:11:43.447Z,20.97
2016-12-13T02:12:11.685Z,21.01
2016-12-13T02:12:40.008Z,20.97
2016-12-13T02:13:08.115Z,20.9
2016-12-13T02:14:19.438Z,21.04
2016-12-13T02:14:47.568Z,20.98
2016-12-13T02:15:15.603Z,20.97
2016-12-13T02:15:43.752Z,20.98
2016-12-13T02:16:12.055Z,21.01
2016-12-13T02:16:40.367Z,21.03
2016-12-13T02:17:08.546Z,21
2016-12-13T02:17:36.587Z,20.98
2016-12-13T02:18:04.917Z,21
2016-12-13T02:18:33.140Z,20.95
2016-12-13T02:19:01.339Z,21.01
2016-12-13T02:20:12.478Z,21.01
2016-12-13T02:20:40.700Z,20.98
2016-12-13T02:21:08.922Z,20.98
2016-12-13T02:21:37.158Z,21.01
2016-12-13T02:22:05.369Z,20.86
2016-12-13T02:22:33.581Z,20.98
2016-12-13T02:23:01.781Z,21.05
2016-12-13T02:23:30.093Z,21.04
2016-12-13T02:23:58.330Z,21.03
2016-12-13T02:24:26.651Z,21.01
2016-12-13T02:24:54.848Z,21.05
2016-12-13T02:26:05.989Z,21.04
2016-12-13T02:26:34.218Z,21.04
2016-12-13T02:27:02.443Z,21
2016-12-13T02:27:30.687Z,21.04
2016-12-13T02:27:58.897Z,21
2016-12-13T02:28:27.021Z,20.98
2016-12-13T02:28:55.202Z,20.97
2016-12-13T02:29:23.512Z,20.98
2016-12-13T02:29:51.743Z,20.97
2016-12-13T02:30:19.972Z,21.01
2016-12-13T02:30:48.164Z,20.97
2016-12-13T02:31:59.305Z,20.97
2016-12-13T02:32:27.527Z,21.04
2016-12-13T02:32:55.754Z,20.98
2016-12-13T02:33:24.001Z,21.03
2016-12-13T02:33:52.214Z,20.98
2016-12-13T02:34:20.521Z,20.95
2016-12-13T02:34:48.697Z,20.93
2016-12-13T02:35:16.823Z,20.98
2016-12-13T02:35:44.960Z,21
2016-12-13T02:36:13.276Z,21.07
2016-12-13T02:36:41.472Z,21.03
2016-12-13T02:37:52.801Z,20.98
2016-12-13T02:38:20.854Z,20.97
2016-12-13T02:38:48.897Z,21
2016-12-13T02:39:17.229Z,21
2016-12-13T02:39:45.533Z,21.03
2016-12-13T02:40:13.653Z,21.03
2016-12-13T02:40:41.837Z,21
2016-12-13T02:41:09.963Z,21.04
2016-12-13T02:41:38.100Z,21.03
2016-12-13T02:42:06.324Z,21.04
2016-12-13T02:42:34.521Z,20.97
2016-12-13T02:43:45.846Z,20.95
2016-12-13T02:44:14.163Z,21
2016-12-13T02:44:42.479Z,20.92
2016-12-13T02:45:10.534Z,21.01
2016-12-13T02:45:38.834Z,20.95
2016-12-13T02:46:07.141Z,21.04
2016-12-13T02:46:35.420Z,21.05
2016-12-13T02:47:03.725Z,20.93
2016-12-13T02:47:31.870Z,20.93
2016-12-13T02:48:00.004Z,21.04
2016-12-13T02:48:28.298Z,21.01
2016-12-13T02:49:39.531Z,21.04
2016-12-13T02:50:07.668Z,20.98
2016-12-13T02:50:35.893Z,20.97
2016-12-13T02:51:04.221Z,21
2016-12-13T02:51:32.519Z,21.05
2016-12-13T02:52:00.737Z,21.07
2016-12-13T02:52:29.015Z,21.04
2016-12-13T02:52:57.236Z,21.03
2016-12-13T02:53:25.288Z,20.93
2016-12-13T02:53:53.609Z,21
2016-12-13T02:54:21.619Z,21
2016-12-13T02:55:32.955Z,21.04
2016-12-13T02:56:01.182Z,21
2016-12-13T02:56:29.403Z,21.01
2016-12-13T02:56:57.735Z,21.05
2016-12-13T02:57:25.945Z,21.07
2016-12-13T02:57:54.068Z,21.01
2016-12-13T02:58:22.245Z,21.13
2016-12-13T02:58:50.368Z,21.16
2016-12-13T02:59:18.607Z,21.11
2016-12-13T02:59:46.834Z,21.18
2016-12-13T03:00:14.938Z,21.13
2016-12-13T03:01:26.264Z,21.14
2016-12-13T03:01:54.583Z,21.13
2016-12-13T03:02:22.707Z,21.1
2016-12-13T03:02:51.038Z,21.1
2016-12-13T03:03:19.057Z,21.05
2016-12-13T03:03:47.365Z,21.05
2016-12-13T03:04:15.635Z,21
2016-12-13T03:04:43.766Z,20.97
2016-12-13T03:05:12.001Z,20.97
2016-12-13T03:05:40.223Z,20.95
2016-12-13T03:06:08.232Z,20.97
2016-12-13T03:07:19.557Z,21
2016-12-13T03:07:47.874Z,21.01
2016-12-13T03:08:15.911Z,21
2016-12-13T03:08:44.244Z,21
2016-12-13T03:09:12.548Z,21.04
2016-12-13T03:09:40.765Z,20.98
2016-12-13T03:10:09.036Z,21.01
2016-12-13T03:10:37.259Z,20.98
2016-12-13T03:11:05.488Z,20.95
2016-12-13T03:11:33.620Z,20.98
2016-12-13T03:12:01.819Z,20.92
2016-12-13T03:13:12.963Z,21.03
2016-12-13T03:13:41.191Z,21.04
2016-12-13T03:14:09.422Z,20.97
2016-12-13T03:14:37.748Z,21.03
2016-12-13T03:15:05.869Z,20.97
2016-12-13T03:15:34.081Z,21.05
2016-12-13T03:16:02.263Z,20.93
2016-12-13T03:16:30.483Z,21
2016-12-13T03:16:58.720Z,20.95
2016-12-13T03:17:26.947Z,20.98
2016-12-13T03:17:55.146Z,20.97
2016-12-13T03:19:06.482Z,21.03
2016-12-13T03:19:34.795Z,20.98
2016-12-13T03:20:02.835Z,20.95
2016-12-13T03:20:31.079Z,21.04
2016-12-13T03:20:59.285Z,21.04
2016-12-13T03:21:27.593Z,20.98
2016-12-13T03:21:55.589Z,21.03
2016-12-13T03:22:23.628Z,20.98
2016-12-13T03:22:51.863Z,21.01
2016-12-13T03:23:20.096Z,21
2016-12-13T03:23:48.196Z,21
2016-12-13T03:24:59.432Z,21
2016-12-13T03:25:27.748Z,20.98
2016-12-13T03:25:55.883Z,20.95
2016-12-13T03:26:23.940Z,20.95
2016-12-13T03:26:52.243Z,20.95
2016-12-13T03:27:20.364Z,20.97
2016-12-13T03:27:48.453Z,20.97
2016-12-13T03:28:16.578Z,21.01
2016-12-13T03:28:44.723Z,21.04
2016-12-13T03:29:13.050Z,21.07
2016-12-13T03:29:41.246Z,21.03
2016-12-13T03:30:52.572Z,21
2016-12-13T03:31:20.891Z,21.07
2016-12-13T03:31:49.210Z,20.97
2016-12-13T03:32:17.267Z,20.92
2016-12-13T03:32:45.570Z,21
2016-12-13T03:33:13.790Z,21.01
2016-12-13T03:33:41.966Z,21.04
2016-12-13T03:34:10.279Z,20.98
2016-12-13T03:34:38.513Z,21
2016-12-13T03:35:06.737Z,20.98
2016-12-13T03:35:34.931Z,21.01
2016-12-13T03:36:46.167Z,21
2016-12-13T03:37:14.394Z,21.05
2016-12-13T03:37:42.528Z,21.01
2016-12-13T03:38:10.862Z,20.97
2016-12-13T03:38:39.165Z,20.95
2016-12-13T03:39:07.475Z,20.98
2016-12-13T03:39:35.654Z,20.97
2016-12-13T03:40:03.867Z,21
2016-12-13T03:40:32.098Z,21
2016-12-13T03:41:00.235Z,21
2016-12-13T03:41:28.429Z,20.88
2016-12-13T03:42:39.757Z,20.83
2016-12-13T03:43:08.076Z,20.88
2016-12-13T03:43:36.213Z,20.86
2016-12-13T03:44:04.452Z,20.9
2016-12-13T03:44:32.476Z,20.85
2016-12-13T03:45:00.790Z,20.83
2016-12-13T03:45:28.878Z,20.86
2016-12-13T03:45:57.191Z,20.88
2016-12-13T03:46:25.333Z,20.83
2016-12-13T03:46:53.561Z,20.79
2016-12-13T03:47:21.760Z,20.79
2016-12-13T03:48:33.083Z,20.89
2016-12-13T03:49:01.402Z,20.85
2016-12-13T03:49:29.535Z,20.89
2016-12-13T03:49:57.773Z,20.89
2016-12-13T03:50:25.797Z,20.9
2016-12-13T03:50:54.005Z,20.79
2016-12-13T03:51:21.912Z,20.85
2016-12-13T03:51:50.133Z,20.8
2016-12-13T03:52:18.462Z,20.85
2016-12-13T03:52:46.691Z,20.79
2016-12-13T03:53:14.887Z,20.89
2016-12-13T03:54:26.123Z,20.82
2016-12-13T03:54:54.350Z,20.89
2016-12-13T03:55:22.582Z,20.85
2016-12-13T03:55:50.916Z,20.83
2016-12-13T03:56:19.219Z,20.83
2016-12-13T03:56:47.523Z,20.8
2016-12-13T03:57:15.702Z,20.88
2016-12-13T03:57:43.830Z,20.88
2016-12-13T03:58:11.972Z,20.89
2016-12-13T03:58:40.198Z,20.83
2016-12-13T03:59:08.490Z,20.85
2016-12-13T04:00:19.819Z,20.88
2016-12-13T04:00:47.951Z,20.85
2016-12-13T04:01:16.182Z,20.88
2016-12-13T04:01:44.419Z,20.88
2016-12-13T04:02:12.721Z,20.97
2016-12-13T04:02:40.937Z,20.92
2016-12-13T04:03:09.118Z,20.92
2016-12-13T04:03:37.334Z,20.92
2016-12-13T04:04:05.568Z,20.97
2016-12-13T04:04:33.791Z,20.98
2016-12-13T04:05:01.988Z,20.97
2016-12-13T04:06:13.162Z,20.98
2016-12-13T04:06:41.477Z,21.03
2016-12-13T04:07:09.708Z,21
2016-12-13T04:07:38.055Z,21.01
2016-12-13T04:08:06.360Z,20.98
2016-12-13T04:08:34.573Z,20.92
2016-12-13T04:09:02.846Z,20.97
2016-12-13T04:09:31.070Z,20.97
2016-12-13T04:09:59.301Z,20.97
2016-12-13T04:10:27.435Z,21
2016-12-13T04:10:55.537Z,21
2016-12-13T04:12:06.771Z,21
2016-12-13T04:12:34.992Z,21.05
2016-12-13T04:13:03.312Z,21
2016-12-13T04:13:31.461Z,21.03
2016-12-13T04:13:59.761Z,20.97
2016-12-13T04:14:28.065Z,20.93
2016-12-13T04:14:56.247Z,21
2016-12-13T04:15:24.375Z,20.93
2016-12-13T04:15:52.612Z,21.03
2016-12-13T04:16:20.936Z,21
2016-12-13T04:16:49.230Z,20.97
2016-12-13T04:18:00.366Z,21.01
2016-12-13T04:18:28.590Z,21
2016-12-13T04:18:56.822Z,21.03
2016-12-13T04:19:25.058Z,21.03
2016-12-13T04:19:53.356Z,21.01
2016-12-13T04:20:21.661Z,20.9
2016-12-13T04:20:49.939Z,20.98
2016-12-13T04:21:18.252Z,21
2016-12-13T04:21:46.389Z,20.98
2016-12-13T04:22:14.710Z,21
2016-12-13T04:22:42.909Z,20.98
2016-12-13T04:23:54.140Z,20.93
2016-12-13T04:24:22.269Z,20.95
2016-12-13T04:24:50.494Z,21.08
2016-12-13T04:25:18.643Z,20.98
2016-12-13T04:25:46.761Z,20.98
2016-12-13T04:26:15.072Z,21
2016-12-13T04:26:43.256Z,21.04
2016-12-13T04:27:11.571Z,21.04
2016-12-13T04:27:39.904Z,21
2016-12-13T04:28:08.228Z,21.03
2016-12-13T04:28:36.335Z,21.04
2016-12-13T04:29:47.661Z,21.1
2016-12-13T04:30:15.977Z,21.08
2016-12-13T04:30:44.201Z,21.07
2016-12-13T04:31:12.438Z,20.98
2016-12-13T04:31:40.740Z,20.98
2016-12-13T04:32:09.054Z,21.03
2016-12-13T04:32:37.235Z,21.08
2016-12-13T04:33:05.455Z,21.08
2016-12-13T04:33:33.684Z,20.97
2016-12-13T04:34:01.913Z,21
2016-12-13T04:34:30.015Z,21.01
2016-12-13T04:35:41.156Z,21.01
2016-12-13T04:36:09.378Z,21.05
2016-12-13T04:36:37.607Z,21.04
2016-12-13T04:37:05.849Z,21.03
2016-12-13T04:37:34.060Z,21.03
2016-12-13T04:38:02.272Z,21.08
2016-12-13T04:38:30.364Z,21.04
2016-12-13T04:38:58.495Z,21.08
2016-12-13T04:39:26.637Z,21.01
2016-12-13T04:39:54.953Z,21.04
2016-12-13T04:40:23.055Z,21.04
2016-12-13T04:41:34.289Z,21.08
2016-12-13T04:42:02.510Z,21
2016-12-13T04:42:30.740Z,21.07
2016-12-13T04:42:58.794Z,21.08
2016-12-13T04:43:26.823Z,21.05
2016-12-13T04:43:54.949Z,21.16
2016-12-13T04:44:23.127Z,21.01
2016-12-13T04:44:51.437Z,21
2016-12-13T04:45:19.772Z,21.05
2016-12-13T04:45:47.993Z,21.1
2016-12-13T04:46:16.100Z,21.03
2016-12-13T04:47:27.338Z,21.1
2016-12-13T04:47:55.565Z,21.14
2016-12-13T04:48:23.797Z,21.14
2016-12-13T04:48:52.041Z,21.16
2016-12-13T04:49:20.253Z,21.11
2016-12-13T04:49:48.565Z,21.13
2016-12-13T04:50:16.738Z,21
2016-12-13T04:50:44.952Z,21.14
2016-12-13T04:51:13.184Z,21.16
2016-12-13T04:51:41.411Z,21.14
2016-12-13T04:52:09.609Z,21.18
2016-12-13T04:53:20.869Z,21.16
2016-12-13T04:53:48.845Z,21.14
2016-12-13T04:54:17.073Z,21.2
2016-12-13T04:54:45.407Z,21.16
2016-12-13T04:55:13.614Z,21.14
2016-12-13T04:55:41.826Z,21.14
2016-12-13T04:56:10.100Z,21.1
2016-12-13T04:56:38.319Z,21.11
2016-12-13T04:57:06.455Z,21.11
2016-12-13T04:57:34.497Z,21.13
2016-12-13T04:58:02.789Z,21.11
2016-12-13T04:59:14.111Z,21.19
2016-12-13T04:59:42.427Z,21.14
2016-12-13T05:00:10.653Z,21.18
2016-12-13T05:00:38.895Z,21.16
2016-12-13T05:01:07.114Z,21.16
2016-12-13T05:01:35.331Z,21.19
2016-12-13T05:02:03.502Z,21.16
2016-12-13T05:02:31.723Z,21.18
2016-12-13T05:02:59.957Z,21.18
2016-12-13T05:03:28.276Z,21.16
2016-12-13T05:03:56.291Z,21.19
2016-12-13T05:05:07.433Z,21.22
2016-12-13T05:05:35.658Z,21.14
2016-12-13T05:06:03.972Z,21.19
2016-12-13T05:06:32.214Z,21.16
2016-12-13T05:07:00.515Z,21.18
2016-12-13T05:07:28.822Z,21.16
2016-12-13T05:07:57.093Z,21.16
2016-12-13T05:08:25.120Z,21.19
2016-12-13T05:08:53.349Z,21.18
2016-12-13T05:09:21.486Z,21.26
2016-12-13T05:09:49.681Z,21.16
2016-12-13T05:11:01.005Z,21.14
2016-12-13T05:11:29.132Z,21.2
2016-12-13T05:11:57.358Z,21.2
2016-12-13T05:12:25.691Z,21.19
2016-12-13T05:12:53.990Z,21.2
2016-12-13T05:13:22.299Z,21.19
2016-12-13T05:13:50.572Z,21.19
2016-12-13T05:14:18.881Z,21.2
2016-12-13T05:14:46.831Z,21.29
2016-12-13T05:15:15.148Z,21.2
2016-12-13T05:15:43.373Z,21.16
2016-12-13T05:16:54.698Z,21.28
2016-12-13T05:17:23.012Z,21.16
2016-12-13T05:17:51.232Z,21.25
2016-12-13T05:18:19.467Z,21.25
2016-12-13T05:18:47.766Z,21.22
2016-12-13T05:19:15.975Z,21.25
2016-12-13T05:19:43.965Z,21.25
2016-12-13T05:20:12.088Z,21.19
2016-12-13T05:20:40.317Z,21.19
2016-12-13T05:21:08.547Z,21.2
2016-12-13T05:21:36.745Z,21.28
2016-12-13T05:22:47.791Z,21.14
2016-12-13T05:23:16.048Z,21.13
2016-12-13T05:23:44.106Z,21.2
2016-12-13T05:24:12.417Z,21.16
2016-12-13T05:24:40.626Z,21.18
2016-12-13T05:25:08.837Z,21.3
2016-12-13T05:25:37.016Z,21.13
2016-12-13T05:26:05.138Z,21.22
2016-12-13T05:26:33.461Z,21.18
2016-12-13T05:27:01.503Z,21.2
2016-12-13T05:27:29.703Z,21.18
2016-12-13T05:28:41.030Z,21.19
2016-12-13T05:29:09.312Z,21.18
2016-12-13T05:29:37.682Z,21.19
2016-12-13T05:30:06.024Z,21.18
2016-12-13T05:30:34.325Z,21.19
2016-12-13T05:31:02.543Z,21.2
2016-12-13T05:31:30.721Z,21.18
2016-12-13T05:31:58.919Z,21.18
2016-12-13T05:32:27.151Z,21.16
2016-12-13T05:32:55.282Z,21.2
2016-12-13T05:33:23.576Z,21.22
2016-12-13T05:34:34.807Z,21.19
2016-12-13T05:35:02.938Z,21.2
2016-12-13T05:35:31.252Z,21.13
2016-12-13T05:35:59.495Z,21.11
2016-12-13T05:36:27.699Z,21.16
2016-12-13T05:36:55.916Z,21.14
2016-12-13T05:37:23.999Z,21.14
2016-12-13T05:37:52.222Z,21.16
2016-12-13T05:38:20.524Z,21.13
2016-12-13T05:38:48.754Z,21.16
2016-12-13T05:39:16.856Z,21.19
2016-12-13T05:40:28.001Z,21.18
2016-12-13T05:40:56.317Z,21.13
2016-12-13T05:41:24.631Z,21.18
2016-12-13T05:41:52.871Z,21.16
2016-12-13T05:42:21.083Z,21.18
2016-12-13T05:42:49.388Z,21.1
2016-12-13T05:43:17.663Z,21.14
2016-12-13T05:43:45.807Z,21.13
2016-12-13T05:44:14.137Z,21.19
2016-12-13T05:44:42.364Z,21.14
2016-12-13T05:45:10.468Z,21.08
2016-12-13T05:46:21.608Z,21.05
2016-12-13T05:46:49.924Z,21.05
2016-12-13T05:47:17.965Z,21.04
2016-12-13T05:47:46.204Z,21.03
2016-12-13T05:48:14.411Z,21.05
2016-12-13T05:48:42.718Z,21.1
2016-12-13T05:49:10.809Z,21.03
2016-12-13T05:49:39.122Z,21.03
2016-12-13T05:50:07.170Z,21
2016-12-13T05:50:35.484Z,21.03
2016-12-13T05:51:03.772Z,21.05
2016-12-13T05:52:14.824Z,21.07
2016-12-13T05:52:43.049Z,21
2016-12-13T05:53:11.275Z,21.01
2016-12-13T05:53:39.608Z,21.1
2016-12-13T05:54:07.820Z,21.07
2016-12-13T05:54:36.132Z,21.08
2016-12-13T05:55:04.218Z,21.01
2016-12-13T05:55:32.532Z,21.03
2016-12-13T05:56:00.854Z,21.03
2016-12-13T05:56:29.170Z,21.03
2016-12-13T05:56:57.459Z,21.07
2016-12-13T05:58:08.791Z,21.11
2016-12-13T05:58:37.018Z,21.08
2016-12-13T05:59:05.156Z,21.16
2016-12-13T05:59:33.296Z,21.1
2016-12-13T06:00:01.507Z,21.16
2016-12-13T06:00:29.812Z,21
2016-12-13T06:00:57.894Z,21.11
2016-12-13T06:01:26.019Z,21.07
2016-12-13T06:01:54.164Z,21.1
2016-12-13T06:02:22.297Z,21.08
2016-12-13T06:02:50.591Z,21.14
2016-12-13T06:04:01.918Z,21.16
2016-12-13T06:04:30.051Z,21.13
2016-12-13T06:04:58.279Z,21.13
2016-12-13T06:05:26.610Z,21.13
2016-12-13T06:05:54.818Z,21.16
2016-12-13T06:06:22.850Z,21.2
2016-12-13T06:06:51.025Z,21.11
2016-12-13T06:07:19.245Z,21.18
2016-12-13T06:07:47.572Z,21.08
2016-12-13T06:08:15.889Z,21.18
2016-12-13T06:08:44.001Z,21.14
2016-12-13T06:09:55.326Z,21.11
2016-12-13T06:10:23.551Z,21.14
2016-12-13T06:10:51.870Z,21.14
2016-12-13T06:11:20.014Z,21.11
2016-12-13T06:11:48.219Z,21.19
2016-12-13T06:12:16.437Z,21.1
2016-12-13T06:12:44.617Z,21.19
2016-12-13T06:13:12.742Z,21.13
2016-12-13T06:13:40.790Z,21.14
2016-12-13T06:14:09.020Z,21.08
2016-12-13T06:14:37.122Z,21.11
2016-12-13T06:15:48.449Z,21.2
2016-12-13T06:16:16.671Z,21.08
2016-12-13T06:16:44.895Z,21.14
2016-12-13T06:17:13.132Z,21.18
2016-12-13T06:17:41.378Z,21.19
2016-12-13T06:18:09.507Z,21.19
2016-12-13T06:18:37.776Z,21.14
2016-12-13T06:19:05.988Z,21.14
2016-12-13T06:19:34.220Z,21.14
2016-12-13T06:20:02.452Z,21.14
2016-12-13T06:20:30.652Z,21.13
2016-12-13T06:21:41.979Z,21.1
2016-12-13T06:22:10.206Z,21
2016-12-13T06:22:38.434Z,21.11
2016-12-13T06:23:06.767Z,21.05
2016-12-13T06:23:35.071Z,21.18
2016-12-13T06:24:03.373Z,21.01
2016-12-13T06:24:31.644Z,21.04
2016-12-13T06:24:59.954Z,21.05
2016-12-13T06:25:28.092Z,21.1
2016-12-13T06:25:56.412Z,21.05
2016-12-13T06:26:24.612Z,21.05
2016-12-13T06:27:35.845Z,21.01
2016-12-13T06:28:04.159Z,21.01
2016-12-13T06:28:32.475Z,21.05
2016-12-13T06:29:00.714Z,21.03
2016-12-13T06:29:28.925Z,21.05
2016-12-13T06:29:57.229Z,21.03
2016-12-13T06:30:25.505Z,21.08
2016-12-13T06:30:53.537Z,21.03
2016-12-13T06:31:21.682Z,21
2016-12-13T06:31:50.218Z,21.04
2016-12-13T06:32:18.336Z,21.1
2016-12-13T06:33:29.571Z,21.03
2016-12-13T06:33:57.793Z,21.05
2016-12-13T06:34:25.832Z,21.04
2016-12-13T06:34:53.977Z,21.04
2016-12-13T06:35:22.205Z,21.04
2016-12-13T06:35:50.421Z,21.07
2016-12-13T06:36:18.596Z,21.07
2016-12-13T06:36:46.911Z,21.01
2016-12-13T06:37:15.142Z,21.03
2016-12-13T06:37:43.361Z,20.98
2016-12-13T06:38:11.557Z,21.04
2016-12-13T06:39:22.607Z,21.08
2016-12-13T06:39:50.741Z,21.05
2016-12-13T06:40:18.968Z,20.97
2016-12-13T06:40:47.208Z,21.03
2016-12-13T06:41:15.509Z,21.01
2016-12-13T06:41:43.626Z,20.95
2016-12-13T06:42:11.804Z,21
2016-12-13T06:42:39.931Z,20.95
2016-12-13T06:43:08.072Z,20.97
2016-12-13T06:43:36.299Z,20.97
2016-12-13T06:44:04.401Z,21
2016-12-13T06:45:15.542Z,20.95
2016-12-13T06:45:43.671Z,20.97
2016-12-13T06:46:11.899Z,20.97
2016-12-13T06:46:40.134Z,20.95
2016-12-13T06:47:08.346Z,20.95
2016-12-13T06:47:36.472Z,20.98
2016-12-13T06:48:04.556Z,20.98
2016-12-13T06:48:32.508Z,20.98
2016-12-13T06:49:00.833Z,21.04
2016-12-13T06:49:28.965Z,20.98
2016-12-13T06:49:57.256Z,20.97
2016-12-13T06:51:08.398Z,20.85
2016-12-13T06:51:36.527Z,21.01
2016-12-13T06:52:04.752Z,20.98
2016-12-13T06:52:32.896Z,20.97
2016-12-13T06:53:01.103Z,20.97
2016-12-13T06:53:29.415Z,20.98
2016-12-13T06:53:57.594Z,20.95
2016-12-13T06:54:25.821Z,21
2016-12-13T06:54:54.149Z,21
2016-12-13T06:55:22.378Z,20.98
2016-12-13T06:55:50.480Z,20.97
2016-12-13T06:57:01.713Z,21.04
2016-12-13T06:57:30.029Z,20.95
2016-12-13T06:57:58.344Z,20.93
2016-12-13T06:58:26.583Z,20.95